sensor_id;sensor_type;location;lat;lon;timestamp;P1;durP1;ratioP1;P2;durP2;ratioP2
19329;SDS011;9799;48.214;16.388;2023-08-12T00:02:37;6.25;;;4.22;;
19329;SDS011;9799;48.214;16.388;2023-08-12T00:05:58;8.48;;;5.38;;
19329;SDS011;9799;48.214;16.388;2023-08-12T00:09:22;5.95;;;4.90;;
19329;SDS011;9799;48.214;16.388;2023-08-12T00:12:44;5.40;;;4.90;;
19329;SDS011;9799;48.214;16.388;2023-08-12T00:16:05;4.93;;;4.35;;
19329;SDS011;9799;48.214;16.388;2023-08-12T00:19:26;4.80;;;4.35;;
19329;SDS011;9799;48.214;16.388;2023-08-12T00:22:47;5.20;;;4.70;;
19329;SDS011;9799;48.214;16.388;2023-08-12T00:26:10;4.90;;;4.50;;
19329;SDS011;9799;48.214;16.388;2023-08-12T00:29:31;5.18;;;4.68;;
19329;SDS011;9799;48.214;16.388;2023-08-12T00:32:52;5.15;;;4.57;;
19329;SDS011;9799;48.214;16.388;2023-08-12T00:36:13;5.72;;;4.43;;
19329;SDS011;9799;48.214;16.388;2023-08-12T00:39:34;5.30;;;4.80;;
19329;SDS011;9799;48.214;16.388;2023-08-12T00:42:57;9.30;;;4.55;;
19329;SDS011;9799;48.214;16.388;2023-08-12T00:46:18;6.95;;;5.07;;
19329;SDS011;9799;48.214;16.388;2023-08-12T00:49:39;5.50;;;5.00;;
19329;SDS011;9799;48.214;16.388;2023-08-12T00:53:03;5.53;;;4.68;;
19329;SDS011;9799;48.214;16.388;2023-08-12T00:56:25;6.55;;;4.90;;
19329;SDS011;9799;48.214;16.388;2023-08-12T00:59:48;5.32;;;4.68;;
19329;SDS011;9799;48.214;16.388;2023-08-12T01:03:09;9.38;;;4.60;;
19329;SDS011;9799;48.214;16.388;2023-08-12T01:06:32;7.30;;;5.35;;
19329;SDS011;9799;48.214;16.388;2023-08-12T01:09:53;5.93;;;4.93;;
19329;SDS011;9799;48.214;16.388;2023-08-12T01:13:16;6.63;;;5.97;;
19329;SDS011;9799;48.214;16.388;2023-08-12T01:16:46;5.30;;;4.80;;
19329;SDS011;9799;48.214;16.388;2023-08-12T01:20:10;6.65;;;4.68;;
19329;SDS011;9799;48.214;16.388;2023-08-12T01:23:34;7.82;;;5.50;;
19329;SDS011;9799;48.214;16.388;2023-08-12T01:26:56;5.78;;;5.13;;
19329;SDS011;9799;48.214;16.388;2023-08-12T01:30:17;5.88;;;5.38;;
19329;SDS011;9799;48.214;16.388;2023-08-12T01:33:43;7.30;;;5.70;;
19329;SDS011;9799;48.214;16.388;2023-08-12T01:37:13;7.82;;;6.15;;
19329;SDS011;9799;48.214;16.388;2023-08-12T01:40:39;6.93;;;6.22;;
19329;SDS011;9799;48.214;16.388;2023-08-12T01:44:01;8.13;;;6.68;;
19329;SDS011;9799;48.214;16.388;2023-08-12T01:47:24;9.93;;;6.07;;
19329;SDS011;9799;48.214;16.388;2023-08-12T01:50:46;7.13;;;6.20;;
19329;SDS011;9799;48.214;16.388;2023-08-12T01:54:07;8.52;;;6.80;;
19329;SDS011;9799;48.214;16.388;2023-08-12T01:57:30;7.85;;;6.80;;
19329;SDS011;9799;48.214;16.388;2023-08-12T02:00:51;9.82;;;6.32;;
19329;SDS011;9799;48.214;16.388;2023-08-12T02:04:12;7.55;;;6.50;;
19329;SDS011;9799;48.214;16.388;2023-08-12T02:07:33;8.18;;;7.15;;
19329;SDS011;9799;48.214;16.388;2023-08-12T02:10:54;7.60;;;6.88;;
19329;SDS011;9799;48.214;16.388;2023-08-12T02:14:17;9.65;;;7.25;;
19329;SDS011;9799;48.214;16.388;2023-08-12T02:17:38;8.68;;;7.15;;
19329;SDS011;9799;48.214;16.388;2023-08-12T02:20:59;12.10;;;6.82;;
19329;SDS011;9799;48.214;16.388;2023-08-12T02:24:20;7.35;;;6.65;;
19329;SDS011;9799;48.214;16.388;2023-08-12T02:27:41;7.00;;;6.30;;
19329;SDS011;9799;48.214;16.388;2023-08-12T02:31:04;7.00;;;5.95;;
19329;SDS011;9799;48.214;16.388;2023-08-12T02:34:25;5.63;;;4.72;;
19329;SDS011;9799;48.214;16.388;2023-08-12T02:37:47;4.97;;;4.55;;
19329;SDS011;9799;48.214;16.388;2023-08-12T02:41:08;4.55;;;4.15;;
19329;SDS011;9799;48.214;16.388;2023-08-12T02:44:30;5.05;;;4.65;;
19329;SDS011;9799;48.214;16.388;2023-08-12T02:47:52;6.07;;;4.47;;
19329;SDS011;9799;48.214;16.388;2023-08-12T02:51:14;5.45;;;5.00;;
19329;SDS011;9799;48.214;16.388;2023-08-12T02:54:35;6.00;;;3.83;;
19329;SDS011;9799;48.214;16.388;2023-08-12T02:57:56;6.28;;;4.60;;
19329;SDS011;9799;48.214;16.388;2023-08-12T03:01:17;4.72;;;4.32;;
19329;SDS011;9799;48.214;16.388;2023-08-12T03:04:40;4.93;;;4.50;;
19329;SDS011;9799;48.214;16.388;2023-08-12T03:08:01;5.45;;;4.25;;
19329;SDS011;9799;48.214;16.388;2023-08-12T03:11:23;5.38;;;4.55;;
19329;SDS011;9799;48.214;16.388;2023-08-12T03:14:44;5.45;;;4.97;;
19329;SDS011;9799;48.214;16.388;2023-08-12T03:18:05;5.43;;;4.93;;
19329;SDS011;9799;48.214;16.388;2023-08-12T03:21:27;7.97;;;5.30;;
19329;SDS011;9799;48.214;16.388;2023-08-12T03:24:49;4.97;;;4.55;;
19329;SDS011;9799;48.214;16.388;2023-08-12T03:28:10;6.00;;;4.65;;
19329;SDS011;9799;48.214;16.388;2023-08-12T03:31:31;4.97;;;4.50;;
19329;SDS011;9799;48.214;16.388;2023-08-12T03:34:52;6.18;;;5.57;;
19329;SDS011;9799;48.214;16.388;2023-08-12T03:38:15;6.80;;;5.13;;
19329;SDS011;9799;48.214;16.388;2023-08-12T03:41:36;6.28;;;5.53;;
19329;SDS011;9799;48.214;16.388;2023-08-12T03:44:57;5.50;;;5.00;;
19329;SDS011;9799;48.214;16.388;2023-08-12T03:48:18;10.65;;;5.43;;
19329;SDS011;9799;48.214;16.388;2023-08-12T03:51:40;10.63;;;5.40;;
19329;SDS011;9799;48.214;16.388;2023-08-12T03:55:02;8.93;;;6.32;;
19329;SDS011;9799;48.214;16.388;2023-08-12T03:58:24;5.70;;;5.10;;
19329;SDS011;9799;48.214;16.388;2023-08-12T04:01:45;7.10;;;6.47;;
19329;SDS011;9799;48.214;16.388;2023-08-12T04:05:07;6.55;;;5.88;;
19329;SDS011;9799;48.214;16.388;2023-08-12T04:08:28;5.95;;;5.45;;
19329;SDS011;9799;48.214;16.388;2023-08-12T04:11:53;6.95;;;6.32;;
19329;SDS011;9799;48.214;16.388;2023-08-12T04:15:14;7.07;;;6.38;;
19329;SDS011;9799;48.214;16.388;2023-08-12T04:18:35;6.57;;;5.95;;
19329;SDS011;9799;48.214;16.388;2023-08-12T04:21:56;7.07;;;6.38;;
19329;SDS011;9799;48.214;16.388;2023-08-12T04:25:17;6.78;;;6.18;;
19329;SDS011;9799;48.214;16.388;2023-08-12T04:28:40;6.72;;;6.10;;
19329;SDS011;9799;48.214;16.388;2023-08-12T04:32:01;7.28;;;5.82;;
19329;SDS011;9799;48.214;16.388;2023-08-12T04:35:22;7.30;;;6.03;;
19329;SDS011;9799;48.214;16.388;2023-08-12T04:38:44;7.65;;;5.97;;
19329;SDS011;9799;48.214;16.388;2023-08-12T04:42:05;7.80;;;6.35;;
19329;SDS011;9799;48.214;16.388;2023-08-12T04:45:27;7.28;;;6.10;;
19329;SDS011;9799;48.214;16.388;2023-08-12T04:48:48;6.72;;;5.70;;
19329;SDS011;9799;48.214;16.388;2023-08-12T04:52:10;6.95;;;6.28;;
19329;SDS011;9799;48.214;16.388;2023-08-12T04:55:31;6.45;;;5.55;;
19329;SDS011;9799;48.214;16.388;2023-08-12T04:58:52;6.50;;;5.90;;
19329;SDS011;9799;48.214;16.388;2023-08-12T05:02:15;6.68;;;6.03;;
19329;SDS011;9799;48.214;16.388;2023-08-12T05:05:37;5.22;;;4.82;;
19329;SDS011;9799;48.214;16.388;2023-08-12T05:08:59;6.22;;;5.50;;
19329;SDS011;9799;48.214;16.388;2023-08-12T05:12:20;6.60;;;5.95;;
19329;SDS011;9799;48.214;16.388;2023-08-12T05:15:41;6.68;;;6.07;;
19329;SDS011;9799;48.214;16.388;2023-08-12T05:19:06;8.48;;;6.40;;
19329;SDS011;9799;48.214;16.388;2023-08-12T05:22:27;8.85;;;6.45;;
19329;SDS011;9799;48.214;16.388;2023-08-12T05:25:48;7.60;;;6.57;;
19329;SDS011;9799;48.214;16.388;2023-08-12T05:29:10;7.15;;;6.55;;
19329;SDS011;9799;48.214;16.388;2023-08-12T05:32:31;9.05;;;8.23;;
19329;SDS011;9799;48.214;16.388;2023-08-12T05:35:53;12.75;;;10.68;;
19329;SDS011;9799;48.214;16.388;2023-08-12T05:39:14;10.18;;;9.18;;
19329;SDS011;9799;48.214;16.388;2023-08-12T05:42:36;9.05;;;8.20;;
19329;SDS011;9799;48.214;16.388;2023-08-12T05:45:57;8.48;;;7.68;;
19329;SDS011;9799;48.214;16.388;2023-08-12T05:49:18;7.00;;;6.40;;
19329;SDS011;9799;48.214;16.388;2023-08-12T05:52:40;8.02;;;6.63;;
19329;SDS011;9799;48.214;16.388;2023-08-12T05:56:02;7.32;;;6.63;;
19329;SDS011;9799;48.214;16.388;2023-08-12T05:59:23;6.72;;;6.07;;
19329;SDS011;9799;48.214;16.388;2023-08-12T06:02:44;6.85;;;6.25;;
19329;SDS011;9799;48.214;16.388;2023-08-12T06:06:05;6.90;;;6.25;;
19329;SDS011;9799;48.214;16.388;2023-08-12T06:09:28;7.68;;;6.85;;
19329;SDS011;9799;48.214;16.388;2023-08-12T06:12:49;7.32;;;6.63;;
19329;SDS011;9799;48.214;16.388;2023-08-12T06:16:10;7.40;;;6.38;;
19329;SDS011;9799;48.214;16.388;2023-08-12T06:19:31;6.97;;;6.38;;
19329;SDS011;9799;48.214;16.388;2023-08-12T06:22:52;7.47;;;6.78;;
19329;SDS011;9799;48.214;16.388;2023-08-12T06:26:15;8.88;;;8.05;;
19329;SDS011;9799;48.214;16.388;2023-08-12T06:29:36;9.52;;;8.52;;
19329;SDS011;9799;48.214;16.388;2023-08-12T06:32:57;9.20;;;8.32;;
19329;SDS011;9799;48.214;16.388;2023-08-12T06:36:18;9.40;;;7.68;;
19329;SDS011;9799;48.214;16.388;2023-08-12T06:39:39;8.57;;;7.68;;
19329;SDS011;9799;48.214;16.388;2023-08-12T06:43:02;10.65;;;7.63;;
19329;SDS011;9799;48.214;16.388;2023-08-12T06:46:23;8.35;;;7.57;;
19329;SDS011;9799;48.214;16.388;2023-08-12T06:49:45;8.85;;;7.28;;
19329;SDS011;9799;48.214;16.388;2023-08-12T06:53:06;8.40;;;7.50;;
19329;SDS011;9799;48.214;16.388;2023-08-12T06:56:27;8.25;;;7.45;;
19329;SDS011;9799;48.214;16.388;2023-08-12T06:59:50;8.50;;;7.70;;
19329;SDS011;9799;48.214;16.388;2023-08-12T07:03:11;10.85;;;9.30;;
19329;SDS011;9799;48.214;16.388;2023-08-12T07:06:32;9.05;;;8.15;;
19329;SDS011;9799;48.214;16.388;2023-08-12T07:09:53;9.93;;;9.02;;
19329;SDS011;9799;48.214;16.388;2023-08-12T07:13:15;10.55;;;9.10;;
19329;SDS011;9799;48.214;16.388;2023-08-12T07:16:37;10.60;;;9.50;;
19329;SDS011;9799;48.214;16.388;2023-08-12T07:19:58;13.38;;;12.00;;
19329;SDS011;9799;48.214;16.388;2023-08-12T07:23:19;9.57;;;8.73;;
19329;SDS011;9799;48.214;16.388;2023-08-12T07:26:40;9.77;;;8.60;;
19329;SDS011;9799;48.214;16.388;2023-08-12T07:30:02;10.07;;;9.07;;
19329;SDS011;9799;48.214;16.388;2023-08-12T07:33:24;8.52;;;7.80;;
19329;SDS011;9799;48.214;16.388;2023-08-12T07:36:46;8.48;;;7.72;;
19329;SDS011;9799;48.214;16.388;2023-08-12T07:40:07;8.73;;;7.93;;
19329;SDS011;9799;48.214;16.388;2023-08-12T07:43:29;8.00;;;7.30;;
19329;SDS011;9799;48.214;16.388;2023-08-12T07:46:50;7.82;;;6.97;;
19329;SDS011;9799;48.214;16.388;2023-08-12T07:50:13;8.93;;;7.93;;
19329;SDS011;9799;48.214;16.388;2023-08-12T07:53:34;8.35;;;7.50;;
19329;SDS011;9799;48.214;16.388;2023-08-12T07:56:55;9.38;;;8.20;;
19329;SDS011;9799;48.214;16.388;2023-08-12T08:00:16;7.43;;;6.72;;
19329;SDS011;9799;48.214;16.388;2023-08-12T08:03:38;6.25;;;5.68;;
19329;SDS011;9799;48.214;16.388;2023-08-12T08:07:01;6.55;;;6.05;;
19329;SDS011;9799;48.214;16.388;2023-08-12T08:10:22;6.55;;;6.03;;
19329;SDS011;9799;48.214;16.388;2023-08-12T08:13:44;8.45;;;5.35;;
19329;SDS011;9799;48.214;16.388;2023-08-12T08:17:05;5.75;;;5.25;;
19329;SDS011;9799;48.214;16.388;2023-08-12T08:20:26;6.63;;;5.25;;
19329;SDS011;9799;48.214;16.388;2023-08-12T08:23:49;5.40;;;4.90;;
19329;SDS011;9799;48.214;16.388;2023-08-12T08:27:10;5.13;;;4.68;;
19329;SDS011;9799;48.214;16.388;2023-08-12T08:30:32;6.07;;;5.18;;
19329;SDS011;9799;48.214;16.388;2023-08-12T08:33:53;5.50;;;5.03;;
19329;SDS011;9799;48.214;16.388;2023-08-12T08:37:15;6.00;;;5.50;;
19329;SDS011;9799;48.214;16.388;2023-08-12T08:40:37;6.30;;;5.70;;
19329;SDS011;9799;48.214;16.388;2023-08-12T08:44:00;6.57;;;6.03;;
19329;SDS011;9799;48.214;16.388;2023-08-12T08:47:25;6.68;;;6.03;;
19329;SDS011;9799;48.214;16.388;2023-08-12T08:50:47;6.00;;;5.50;;
19329;SDS011;9799;48.214;16.388;2023-08-12T08:54:10;7.03;;;6.43;;
19329;SDS011;9799;48.214;16.388;2023-08-12T08:57:33;10.02;;;7.22;;
19329;SDS011;9799;48.214;16.388;2023-08-12T09:00:55;8.25;;;7.43;;
19329;SDS011;9799;48.214;16.388;2023-08-12T09:04:16;10.85;;;7.28;;
19329;SDS011;9799;48.214;16.388;2023-08-12T09:07:38;8.38;;;7.60;;
19329;SDS011;9799;48.214;16.388;2023-08-12T09:11:01;8.52;;;7.13;;
19329;SDS011;9799;48.214;16.388;2023-08-12T09:14:24;7.57;;;6.90;;
19329;SDS011;9799;48.214;16.388;2023-08-12T09:17:46;9.38;;;6.80;;
19329;SDS011;9799;48.214;16.388;2023-08-12T09:21:07;8.00;;;7.30;;
19329;SDS011;9799;48.214;16.388;2023-08-12T09:24:29;6.90;;;6.30;;
19329;SDS011;9799;48.214;16.388;2023-08-12T09:27:51;6.68;;;5.93;;
19329;SDS011;9799;48.214;16.388;2023-08-12T09:31:26;7.00;;;5.90;;
19329;SDS011;9799;48.214;16.388;2023-08-12T09:34:49;6.80;;;6.15;;
19329;SDS011;9799;48.214;16.388;2023-08-12T09:38:12;7.15;;;5.90;;
19329;SDS011;9799;48.214;16.388;2023-08-12T09:41:33;6.75;;;6.15;;
19329;SDS011;9799;48.214;16.388;2023-08-12T09:44:56;5.95;;;5.35;;
19329;SDS011;9799;48.214;16.388;2023-08-12T09:48:18;5.50;;;4.97;;
19329;SDS011;9799;48.214;16.388;2023-08-12T09:51:40;6.30;;;5.80;;
19329;SDS011;9799;48.214;16.388;2023-08-12T09:55:03;5.32;;;4.82;;
19329;SDS011;9799;48.214;16.388;2023-08-12T09:58:25;6.80;;;5.35;;
19329;SDS011;9799;48.214;16.388;2023-08-12T10:01:49;5.10;;;4.60;;
19329;SDS011;9799;48.214;16.388;2023-08-12T10:05:15;5.65;;;4.80;;
19329;SDS011;9799;48.214;16.388;2023-08-12T10:08:39;5.43;;;4.93;;
19329;SDS011;9799;48.214;16.388;2023-08-12T10:12:01;5.07;;;4.68;;
19329;SDS011;9799;48.214;16.388;2023-08-12T10:15:23;5.30;;;4.35;;
19329;SDS011;9799;48.214;16.388;2023-08-12T10:18:44;6.47;;;4.40;;
19329;SDS011;9799;48.214;16.388;2023-08-12T10:22:09;4.55;;;4.15;;
19329;SDS011;9799;48.214;16.388;2023-08-12T10:25:31;4.53;;;4.10;;
19329;SDS011;9799;48.214;16.388;2023-08-12T10:28:53;4.90;;;4.40;;
19329;SDS011;9799;48.214;16.388;2023-08-12T10:32:15;4.13;;;3.72;;
19329;SDS011;9799;48.214;16.388;2023-08-12T10:35:40;4.68;;;4.28;;
19329;SDS011;9799;48.214;16.388;2023-08-12T10:39:04;4.32;;;3.92;;
19329;SDS011;9799;48.214;16.388;2023-08-12T10:42:41;4.45;;;4.05;;
19329;SDS011;9799;48.214;16.388;2023-08-12T10:46:03;4.15;;;3.80;;
19329;SDS011;9799;48.214;16.388;2023-08-12T10:49:24;4.30;;;3.90;;
19329;SDS011;9799;48.214;16.388;2023-08-12T10:52:46;4.07;;;3.70;;
19329;SDS011;9799;48.214;16.388;2023-08-12T10:56:10;3.65;;;3.35;;
19329;SDS011;9799;48.214;16.388;2023-08-12T10:59:51;3.80;;;3.50;;
19329;SDS011;9799;48.214;16.388;2023-08-12T11:03:14;5.80;;;4.05;;
19329;SDS011;9799;48.214;16.388;2023-08-12T11:06:42;3.72;;;3.42;;
19329;SDS011;9799;48.214;16.388;2023-08-12T11:10:09;4.63;;;4.15;;
19329;SDS011;9799;48.214;16.388;2023-08-12T11:13:34;4.90;;;3.88;;
19329;SDS011;9799;48.214;16.388;2023-08-12T11:17:11;3.42;;;3.20;;
19329;SDS011;9799;48.214;16.388;2023-08-12T11:20:34;3.90;;;3.42;;
19329;SDS011;9799;48.214;16.388;2023-08-12T11:23:56;4.38;;;3.90;;
19329;SDS011;9799;48.214;16.388;2023-08-12T11:27:17;4.28;;;3.20;;
19329;SDS011;9799;48.214;16.388;2023-08-12T11:30:41;3.20;;;2.90;;
19329;SDS011;9799;48.214;16.388;2023-08-12T11:34:04;3.90;;;3.50;;
19329;SDS011;9799;48.214;16.388;2023-08-12T11:37:25;4.40;;;4.00;;
19329;SDS011;9799;48.214;16.388;2023-08-12T11:40:46;5.30;;;4.20;;
19329;SDS011;9799;48.214;16.388;2023-08-12T11:44:11;4.07;;;3.72;;
19329;SDS011;9799;48.214;16.388;2023-08-12T11:47:34;4.20;;;3.50;;
19329;SDS011;9799;48.214;16.388;2023-08-12T11:50:54;3.65;;;3.35;;
19329;SDS011;9799;48.214;16.388;2023-08-12T11:54:16;3.33;;;3.08;;
19329;SDS011;9799;48.214;16.388;2023-08-12T11:57:39;4.20;;;3.15;;
19329;SDS011;9799;48.214;16.388;2023-08-12T12:01:01;11.07;;;3.40;;
19329;SDS011;9799;48.214;16.388;2023-08-12T12:04:23;3.10;;;2.90;;
19329;SDS011;9799;48.214;16.388;2023-08-12T12:07:45;6.38;;;3.60;;
19329;SDS011;9799;48.214;16.388;2023-08-12T12:11:08;2.97;;;2.78;;
19329;SDS011;9799;48.214;16.388;2023-08-12T12:14:30;4.95;;;2.97;;
19329;SDS011;9799;48.214;16.388;2023-08-12T12:17:51;3.10;;;2.80;;
19329;SDS011;9799;48.214;16.388;2023-08-12T12:21:19;4.18;;;2.85;;
19329;SDS011;9799;48.214;16.388;2023-08-12T12:24:45;3.33;;;3.03;;
19329;SDS011;9799;48.214;16.388;2023-08-12T12:28:07;3.28;;;2.92;;
19329;SDS011;9799;48.214;16.388;2023-08-12T12:31:28;3.60;;;2.72;;
19329;SDS011;9799;48.214;16.388;2023-08-12T12:34:50;4.10;;;2.45;;
19329;SDS011;9799;48.214;16.388;2023-08-12T12:38:13;2.75;;;2.53;;
19329;SDS011;9799;48.214;16.388;2023-08-12T12:41:34;2.83;;;2.63;;
19329;SDS011;9799;48.214;16.388;2023-08-12T12:44:55;2.92;;;2.50;;
19329;SDS011;9799;48.214;16.388;2023-08-12T12:48:16;3.28;;;3.00;;
19329;SDS011;9799;48.214;16.388;2023-08-12T12:51:37;2.55;;;2.35;;
19329;SDS011;9799;48.214;16.388;2023-08-12T12:55:00;2.63;;;2.42;;
19329;SDS011;9799;48.214;16.388;2023-08-12T12:58:23;2.55;;;2.35;;
19329;SDS011;9799;48.214;16.388;2023-08-12T13:01:44;3.15;;;2.88;;
19329;SDS011;9799;48.214;16.388;2023-08-12T13:05:06;3.92;;;3.20;;
19329;SDS011;9799;48.214;16.388;2023-08-12T13:08:28;3.72;;;3.35;;
19329;SDS011;9799;48.214;16.388;2023-08-12T13:11:51;2.60;;;2.10;;
19329;SDS011;9799;48.214;16.388;2023-08-12T13:15:16;3.00;;;2.63;;
19329;SDS011;9799;48.214;16.388;2023-08-12T13:18:37;4.43;;;2.20;;
19329;SDS011;9799;48.214;16.388;2023-08-12T13:21:58;2.95;;;2.58;;
19329;SDS011;9799;48.214;16.388;2023-08-12T13:25:21;3.55;;;2.17;;
19329;SDS011;9799;48.214;16.388;2023-08-12T13:28:44;2.50;;;2.20;;
19329;SDS011;9799;48.214;16.388;2023-08-12T13:32:05;2.38;;;2.17;;
19329;SDS011;9799;48.214;16.388;2023-08-12T13:35:26;2.20;;;2.00;;
19329;SDS011;9799;48.214;16.388;2023-08-12T13:38:48;3.05;;;2.75;;
19329;SDS011;9799;48.214;16.388;2023-08-12T13:42:09;3.28;;;2.13;;
19329;SDS011;9799;48.214;16.388;2023-08-12T13:45:31;4.07;;;2.63;;
19329;SDS011;9799;48.214;16.388;2023-08-12T13:48:52;2.28;;;2.08;;
19329;SDS011;9799;48.214;16.388;2023-08-12T13:52:13;2.90;;;2.70;;
19329;SDS011;9799;48.214;16.388;2023-08-12T13:55:35;3.20;;;2.50;;
19329;SDS011;9799;48.214;16.388;2023-08-12T13:58:56;3.97;;;3.05;;
19329;SDS011;9799;48.214;16.388;2023-08-12T14:02:18;2.63;;;2.42;;
19329;SDS011;9799;48.214;16.388;2023-08-12T14:05:39;4.10;;;2.50;;
19329;SDS011;9799;48.214;16.388;2023-08-12T14:09:01;2.10;;;1.90;;
19329;SDS011;9799;48.214;16.388;2023-08-12T14:12:22;2.60;;;2.40;;
19329;SDS011;9799;48.214;16.388;2023-08-12T14:15:43;2.20;;;2.10;;
19329;SDS011;9799;48.214;16.388;2023-08-12T14:19:06;2.72;;;2.40;;
19329;SDS011;9799;48.214;16.388;2023-08-12T14:22:28;2.35;;;2.20;;
19329;SDS011;9799;48.214;16.388;2023-08-12T14:25:49;3.13;;;2.75;;
19329;SDS011;9799;48.214;16.388;2023-08-12T14:29:10;4.32;;;2.50;;
19329;SDS011;9799;48.214;16.388;2023-08-12T14:32:31;2.70;;;2.40;;
19329;SDS011;9799;48.214;16.388;2023-08-12T14:35:54;2.65;;;2.45;;
19329;SDS011;9799;48.214;16.388;2023-08-12T14:39:18;4.15;;;3.75;;
19329;SDS011;9799;48.214;16.388;2023-08-12T14:42:39;12.68;;;11.45;;
19329;SDS011;9799;48.214;16.388;2023-08-12T14:46:00;3.38;;;3.08;;
19329;SDS011;9799;48.214;16.388;2023-08-12T14:49:22;3.17;;;2.88;;
19329;SDS011;9799;48.214;16.388;2023-08-12T14:52:44;4.13;;;3.00;;
19329;SDS011;9799;48.214;16.388;2023-08-12T14:56:05;3.17;;;2.88;;
19329;SDS011;9799;48.214;16.388;2023-08-12T14:59:26;2.70;;;2.50;;
19329;SDS011;9799;48.214;16.388;2023-08-12T15:02:48;2.78;;;2.58;;
19329;SDS011;9799;48.214;16.388;2023-08-12T15:06:09;5.32;;;2.20;;
19329;SDS011;9799;48.214;16.388;2023-08-12T15:09:31;2.38;;;2.17;;
19329;SDS011;9799;48.214;16.388;2023-08-12T15:12:52;2.90;;;2.50;;
19329;SDS011;9799;48.214;16.388;2023-08-12T15:16:14;3.33;;;2.85;;
19329;SDS011;9799;48.214;16.388;2023-08-12T15:19:35;2.80;;;2.60;;
19329;SDS011;9799;48.214;16.388;2023-08-12T15:22:56;2.60;;;2.40;;
19329;SDS011;9799;48.214;16.388;2023-08-12T15:26:18;5.72;;;3.13;;
19329;SDS011;9799;48.214;16.388;2023-08-12T15:29:41;3.08;;;2.78;;
19329;SDS011;9799;48.214;16.388;2023-08-12T15:33:02;3.78;;;3.47;;
19329;SDS011;9799;48.214;16.388;2023-08-12T15:36:25;3.50;;;3.22;;
19329;SDS011;9799;48.214;16.388;2023-08-12T15:39:46;4.13;;;3.72;;
19329;SDS011;9799;48.214;16.388;2023-08-12T15:43:08;3.30;;;3.00;;
19329;SDS011;9799;48.214;16.388;2023-08-12T15:46:29;3.47;;;3.17;;
19329;SDS011;9799;48.214;16.388;2023-08-12T15:49:51;4.28;;;2.92;;
19329;SDS011;9799;48.214;16.388;2023-08-12T15:53:15;3.10;;;2.80;;
19329;SDS011;9799;48.214;16.388;2023-08-12T15:56:36;3.78;;;3.45;;
19329;SDS011;9799;48.214;16.388;2023-08-12T15:59:58;3.17;;;2.88;;
19329;SDS011;9799;48.214;16.388;2023-08-12T16:03:20;3.53;;;3.22;;
19329;SDS011;9799;48.214;16.388;2023-08-12T16:06:41;3.17;;;2.88;;
19329;SDS011;9799;48.214;16.388;2023-08-12T16:10:02;2.75;;;2.55;;
19329;SDS011;9799;48.214;16.388;2023-08-12T16:13:24;3.42;;;3.13;;
19329;SDS011;9799;48.214;16.388;2023-08-12T16:16:46;2.72;;;2.53;;
19329;SDS011;9799;48.214;16.388;2023-08-12T16:20:08;3.20;;;2.90;;
19329;SDS011;9799;48.214;16.388;2023-08-12T16:23:31;3.50;;;3.30;;
19329;SDS011;9799;48.214;16.388;2023-08-12T16:26:52;3.95;;;2.60;;
19329;SDS011;9799;48.214;16.388;2023-08-12T16:30:13;3.38;;;3.10;;
19329;SDS011;9799;48.214;16.388;2023-08-12T16:33:36;3.38;;;3.08;;
19329;SDS011;9799;48.214;16.388;2023-08-12T16:36:57;4.22;;;3.22;;
19329;SDS011;9799;48.214;16.388;2023-08-12T16:40:18;3.45;;;3.17;;
19329;SDS011;9799;48.214;16.388;2023-08-12T16:43:40;3.80;;;3.50;;
19329;SDS011;9799;48.214;16.388;2023-08-12T16:47:01;4.00;;;3.22;;
19329;SDS011;9799;48.214;16.388;2023-08-12T16:50:23;4.32;;;3.70;;
19329;SDS011;9799;48.214;16.388;2023-08-12T16:53:45;4.05;;;3.53;;
19329;SDS011;9799;48.214;16.388;2023-08-12T16:57:06;3.83;;;3.50;;
19329;SDS011;9799;48.214;16.388;2023-08-12T17:00:35;3.88;;;3.22;;
19329;SDS011;9799;48.214;16.388;2023-08-12T17:03:56;3.83;;;3.53;;
19329;SDS011;9799;48.214;16.388;2023-08-12T17:07:20;4.05;;;3.45;;
19329;SDS011;9799;48.214;16.388;2023-08-12T17:10:41;3.53;;;3.22;;
19329;SDS011;9799;48.214;16.388;2023-08-12T17:14:02;3.30;;;3.10;;
19329;SDS011;9799;48.214;16.388;2023-08-12T17:17:24;7.93;;;3.95;;
19329;SDS011;9799;48.214;16.388;2023-08-12T17:20:46;3.38;;;3.08;;
19329;SDS011;9799;48.214;16.388;2023-08-12T17:24:08;3.55;;;3.25;;
19329;SDS011;9799;48.214;16.388;2023-08-12T17:27:29;4.03;;;3.63;;
19329;SDS011;9799;48.214;16.388;2023-08-12T17:30:50;4.03;;;3.63;;
19329;SDS011;9799;48.214;16.388;2023-08-12T17:34:12;3.78;;;3.38;;
19329;SDS011;9799;48.214;16.388;2023-08-12T17:37:34;2.95;;;2.75;;
19329;SDS011;9799;48.214;16.388;2023-08-12T17:40:59;3.95;;;3.65;;
19329;SDS011;9799;48.214;16.388;2023-08-12T17:44:21;4.28;;;3.65;;
19329;SDS011;9799;48.214;16.388;2023-08-12T17:47:52;5.18;;;3.83;;
19329;SDS011;9799;48.214;16.388;2023-08-12T17:51:15;3.60;;;3.33;;
19329;SDS011;9799;48.214;16.388;2023-08-12T17:54:36;4.70;;;3.55;;
19329;SDS011;9799;48.214;16.388;2023-08-12T17:57:58;3.85;;;3.55;;
19329;SDS011;9799;48.214;16.388;2023-08-12T18:01:20;3.97;;;3.55;;
19329;SDS011;9799;48.214;16.388;2023-08-12T18:04:42;8.13;;;3.72;;
19329;SDS011;9799;48.214;16.388;2023-08-12T18:08:03;6.43;;;3.45;;
19329;SDS011;9799;48.214;16.388;2023-08-12T18:11:25;6.30;;;3.42;;
19329;SDS011;9799;48.214;16.388;2023-08-12T18:14:48;4.70;;;4.30;;
19329;SDS011;9799;48.214;16.388;2023-08-12T18:18:09;6.82;;;3.80;;
19329;SDS011;9799;48.214;16.388;2023-08-12T18:21:30;5.55;;;4.38;;
19329;SDS011;9799;48.214;16.388;2023-08-12T18:24:51;5.65;;;4.68;;
19329;SDS011;9799;48.214;16.388;2023-08-12T18:28:13;4.43;;;4.10;;
19329;SDS011;9799;48.214;16.388;2023-08-12T18:31:36;5.00;;;3.85;;
19329;SDS011;9799;48.214;16.388;2023-08-12T18:34:58;4.28;;;3.92;;
19329;SDS011;9799;48.214;16.388;2023-08-12T18:38:20;5.18;;;3.97;;
19329;SDS011;9799;48.214;16.388;2023-08-12T18:41:41;7.25;;;3.97;;
19329;SDS011;9799;48.214;16.388;2023-08-12T18:45:02;4.90;;;4.15;;
19329;SDS011;9799;48.214;16.388;2023-08-12T18:48:25;4.00;;;3.70;;
19329;SDS011;9799;48.214;16.388;2023-08-12T18:51:47;6.47;;;5.40;;
19329;SDS011;9799;48.214;16.388;2023-08-12T18:55:08;6.00;;;4.70;;
19329;SDS011;9799;48.214;16.388;2023-08-12T18:58:30;4.60;;;3.92;;
19329;SDS011;9799;48.214;16.388;2023-08-12T19:01:51;4.45;;;4.03;;
19329;SDS011;9799;48.214;16.388;2023-08-12T19:05:14;4.90;;;4.35;;
19329;SDS011;9799;48.214;16.388;2023-08-12T19:08:35;5.63;;;4.10;;
19329;SDS011;9799;48.214;16.388;2023-08-12T19:11:57;5.82;;;3.95;;
19329;SDS011;9799;48.214;16.388;2023-08-12T19:15:18;7.47;;;3.47;;
19329;SDS011;9799;48.214;16.388;2023-08-12T19:18:40;4.20;;;3.88;;
19329;SDS011;9799;48.214;16.388;2023-08-12T19:22:02;6.15;;;4.05;;
19329;SDS011;9799;48.214;16.388;2023-08-12T19:25:24;3.80;;;3.47;;
19329;SDS011;9799;48.214;16.388;2023-08-12T19:28:45;6.65;;;4.30;;
19329;SDS011;9799;48.214;16.388;2023-08-12T19:32:07;5.10;;;4.70;;
19329;SDS011;9799;48.214;16.388;2023-08-12T19:35:29;4.88;;;3.97;;
19329;SDS011;9799;48.214;16.388;2023-08-12T19:38:53;5.18;;;4.65;;
19329;SDS011;9799;48.214;16.388;2023-08-12T19:42:14;4.50;;;4.10;;
19329;SDS011;9799;48.214;16.388;2023-08-12T19:45:37;4.80;;;4.35;;
19329;SDS011;9799;48.214;16.388;2023-08-12T19:48:59;5.00;;;4.50;;
19329;SDS011;9799;48.214;16.388;2023-08-12T19:52:23;4.85;;;4.35;;
19329;SDS011;9799;48.214;16.388;2023-08-12T19:55:46;5.40;;;4.40;;
19329;SDS011;9799;48.214;16.388;2023-08-12T19:59:08;4.80;;;4.40;;
19329;SDS011;9799;48.214;16.388;2023-08-12T20:02:30;4.75;;;4.35;;
19329;SDS011;9799;48.214;16.388;2023-08-12T20:05:54;8.40;;;5.25;;
19329;SDS011;9799;48.214;16.388;2023-08-12T20:09:16;4.78;;;4.38;;
19329;SDS011;9799;48.214;16.388;2023-08-12T20:12:40;8.60;;;4.88;;
19329;SDS011;9799;48.214;16.388;2023-08-12T20:16:02;6.70;;;4.80;;
19329;SDS011;9799;48.214;16.388;2023-08-12T20:19:27;7.32;;;4.35;;